sensor_id;sensor_type;location;lat;lon;timestamp;P1;durP1;ratioP1;P2;durP2;ratioP2
61038;SDS011;46919;45.816;3.104;2023-03-01T00:01:38;11.90;;;7.40;;
61038;SDS011;46919;45.816;3.104;2023-03-01T00:04:03;9.65;;;7.30;;
61038;SDS011;46919;45.816;3.104;2023-03-01T00:06:29;12.43;;;7.80;;
61038;SDS011;46919;45.816;3.104;2023-03-01T00:08:54;11.13;;;7.72;;
61038;SDS011;46919;45.816;3.104;2023-03-01T00:13:54;12.05;;;7.95;;
61038;SDS011;46919;45.816;3.104;2023-03-01T00:16:25;11.18;;;7.80;;
61038;SDS011;46919;45.816;3.104;2023-03-01T00:18:51;9.15;;;7.22;;
61038;SDS011;46919;45.816;3.104;2023-03-01T00:21:19;9.80;;;7.30;;
61038;SDS011;46919;45.816;3.104;2023-03-01T00:23:46;11.15;;;7.53;;
61038;SDS011;46919;45.816;3.104;2023-03-01T00:26:13;9.80;;;7.22;;
61038;SDS011;46919;45.816;3.104;2023-03-01T00:28:40;10.88;;;7.72;;
61038;SDS011;46919;45.816;3.104;2023-03-01T00:31:07;10.45;;;7.55;;
61038;SDS011;46919;45.816;3.104;2023-03-01T00:33:46;9.88;;;7.13;;
61038;SDS011;46919;45.816;3.104;2023-03-01T00:36:12;10.32;;;7.97;;
61038;SDS011;46919;45.816;3.104;2023-03-01T00:38:40;12.10;;;7.70;;
61038;SDS011;46919;45.816;3.104;2023-03-01T00:41:08;9.32;;;7.70;;
61038;SDS011;46919;45.816;3.104;2023-03-01T00:43:35;8.80;;;7.30;;
61038;SDS011;46919;45.816;3.104;2023-03-01T00:46:05;11.13;;;7.70;;
61038;SDS011;46919;45.816;3.104;2023-03-01T00:48:35;11.05;;;8.30;;
61038;SDS011;46919;45.816;3.104;2023-03-01T00:51:07;10.68;;;8.18;;
61038;SDS011;46919;45.816;3.104;2023-03-01T00:53:40;9.95;;;7.80;;
61038;SDS011;46919;45.816;3.104;2023-03-01T00:56:06;11.95;;;8.40;;
61038;SDS011;46919;45.816;3.104;2023-03-01T00:58:34;9.65;;;7.85;;
61038;SDS011;46919;45.816;3.104;2023-03-01T01:01:00;10.40;;;7.40;;
61038;SDS011;46919;45.816;3.104;2023-03-01T01:03:31;10.05;;;7.93;;
61038;SDS011;46919;45.816;3.104;2023-03-01T01:05:57;10.20;;;8.00;;
61038;SDS011;46919;45.816;3.104;2023-03-01T01:08:22;8.55;;;7.60;;
61038;SDS011;46919;45.816;3.104;2023-03-01T01:10:47;14.93;;;7.80;;
61038;SDS011;46919;45.816;3.104;2023-03-01T01:13:13;9.93;;;7.53;;
61038;SDS011;46919;45.816;3.104;2023-03-01T01:15:39;9.15;;;7.30;;
61038;SDS011;46919;45.816;3.104;2023-03-01T01:18:05;10.85;;;8.23;;
61038;SDS011;46919;45.816;3.104;2023-03-01T01:20:31;10.85;;;7.68;;
61038;SDS011;46919;45.816;3.104;2023-03-01T01:22:57;12.52;;;8.40;;
61038;SDS011;46919;45.816;3.104;2023-03-01T01:25:22;9.73;;;7.95;;
61038;SDS011;46919;45.816;3.104;2023-03-01T01:27:50;12.30;;;7.97;;
61038;SDS011;46919;45.816;3.104;2023-03-01T01:30:15;11.15;;;7.95;;
61038;SDS011;46919;45.816;3.104;2023-03-01T01:32:41;10.95;;;7.72;;
61038;SDS011;46919;45.816;3.104;2023-03-01T01:35:07;9.35;;;8.23;;
61038;SDS011;46919;45.816;3.104;2023-03-01T01:37:32;10.80;;;8.32;;
61038;SDS011;46919;45.816;3.104;2023-03-01T01:39:58;10.73;;;7.75;;
61038;SDS011;46919;45.816;3.104;2023-03-01T01:42:24;10.57;;;8.15;;
61038;SDS011;46919;45.816;3.104;2023-03-01T01:45:24;10.13;;;8.07;;
61038;SDS011;46919;45.816;3.104;2023-03-01T01:47:51;9.88;;;7.70;;
61038;SDS011;46919;45.816;3.104;2023-03-01T01:50:17;9.88;;;7.85;;
61038;SDS011;46919;45.816;3.104;2023-03-01T01:52:44;11.52;;;8.80;;
61038;SDS011;46919;45.816;3.104;2023-03-01T01:55:12;9.70;;;7.65;;
61038;SDS011;46919;45.816;3.104;2023-03-01T01:57:46;11.00;;;8.57;;
61038;SDS011;46919;45.816;3.104;2023-03-01T02:00:16;11.70;;;8.85;;
61038;SDS011;46919;45.816;3.104;2023-03-01T02:02:44;10.80;;;8.48;;
61038;SDS011;46919;45.816;3.104;2023-03-01T02:05:15;10.32;;;8.18;;
61038;SDS011;46919;45.816;3.104;2023-03-01T02:07:54;10.55;;;8.20;;
61038;SDS011;46919;45.816;3.104;2023-03-01T02:10:21;9.13;;;7.88;;
61038;SDS011;46919;45.816;3.104;2023-03-01T02:12:48;11.77;;;8.50;;
61038;SDS011;46919;45.816;3.104;2023-03-01T02:15:14;10.45;;;8.50;;
61038;SDS011;46919;45.816;3.104;2023-03-01T02:17:39;11.07;;;8.75;;
61038;SDS011;46919;45.816;3.104;2023-03-01T02:22:59;9.50;;;7.70;;
61038;SDS011;46919;45.816;3.104;2023-03-01T02:25:31;13.35;;;8.90;;
61038;SDS011;46919;45.816;3.104;2023-03-01T02:30:41;11.77;;;8.70;;
61038;SDS011;46919;45.816;3.104;2023-03-01T02:33:28;10.45;;;8.60;;
61038;SDS011;46919;45.816;3.104;2023-03-01T02:35:58;12.77;;;8.85;;
61038;SDS011;46919;45.816;3.104;2023-03-01T02:38:27;13.10;;;9.23;;
61038;SDS011;46919;45.816;3.104;2023-03-01T02:40:53;11.50;;;9.02;;
61038;SDS011;46919;45.816;3.104;2023-03-01T02:43:20;11.30;;;9.32;;
61038;SDS011;46919;45.816;3.104;2023-03-01T02:45:51;12.70;;;9.10;;
61038;SDS011;46919;45.816;3.104;2023-03-01T02:48:18;11.30;;;8.75;;
61038;SDS011;46919;45.816;3.104;2023-03-01T02:55:58;10.70;;;8.23;;
61038;SDS011;46919;45.816;3.104;2023-03-01T02:58:24;12.85;;;8.63;;
61038;SDS011;46919;45.816;3.104;2023-03-01T03:00:49;10.93;;;8.38;;
61038;SDS011;46919;45.816;3.104;2023-03-01T03:03:16;11.05;;;8.65;;
61038;SDS011;46919;45.816;3.104;2023-03-01T03:05:44;11.20;;;8.77;;
61038;SDS011;46919;45.816;3.104;2023-03-01T03:08:11;12.35;;;9.18;;
61038;SDS011;46919;45.816;3.104;2023-03-01T03:10:39;12.23;;;9.50;;
61038;SDS011;46919;45.816;3.104;2023-03-01T03:13:07;10.10;;;8.70;;
61038;SDS011;46919;45.816;3.104;2023-03-01T03:15:34;13.50;;;9.18;;
61038;SDS011;46919;45.816;3.104;2023-03-01T03:18:01;11.75;;;9.15;;
61038;SDS011;46919;45.816;3.104;2023-03-01T03:20:28;12.95;;;9.57;;
61038;SDS011;46919;45.816;3.104;2023-03-01T03:22:54;13.10;;;9.18;;
61038;SDS011;46919;45.816;3.104;2023-03-01T03:25:21;14.18;;;9.95;;
61038;SDS011;46919;45.816;3.104;2023-03-01T03:27:47;14.73;;;10.00;;
61038;SDS011;46919;45.816;3.104;2023-03-01T03:30:15;13.68;;;9.88;;
61038;SDS011;46919;45.816;3.104;2023-03-01T03:32:44;14.90;;;10.73;;
61038;SDS011;46919;45.816;3.104;2023-03-01T03:35:17;15.13;;;10.48;;
61038;SDS011;46919;45.816;3.104;2023-03-01T03:37:44;18.25;;;10.52;;
61038;SDS011;46919;45.816;3.104;2023-03-01T03:40:29;17.63;;;10.93;;
61038;SDS011;46919;45.816;3.104;2023-03-01T03:42:56;16.95;;;11.13;;
61038;SDS011;46919;45.816;3.104;2023-03-01T03:45:22;13.35;;;10.10;;
61038;SDS011;46919;45.816;3.104;2023-03-01T03:47:47;15.07;;;10.10;;
61038;SDS011;46919;45.816;3.104;2023-03-01T03:50:13;15.57;;;10.35;;
61038;SDS011;46919;45.816;3.104;2023-03-01T03:52:42;14.38;;;10.32;;
61038;SDS011;46919;45.816;3.104;2023-03-01T03:55:08;15.50;;;10.60;;
61038;SDS011;46919;45.816;3.104;2023-03-01T03:57:39;13.80;;;9.98;;
61038;SDS011;46919;45.816;3.104;2023-03-01T04:00:08;14.57;;;10.52;;
61038;SDS011;46919;45.816;3.104;2023-03-01T04:02:39;15.05;;;10.95;;
61038;SDS011;46919;45.816;3.104;2023-03-01T04:05:05;14.05;;;10.07;;
61038;SDS011;46919;45.816;3.104;2023-03-01T04:07:31;15.05;;;10.95;;
61038;SDS011;46919;45.816;3.104;2023-03-01T04:09:57;16.88;;;10.80;;
61038;SDS011;46919;45.816;3.104;2023-03-01T04:12:22;14.32;;;10.52;;
61038;SDS011;46919;45.816;3.104;2023-03-01T04:14:48;13.05;;;10.02;;
61038;SDS011;46919;45.816;3.104;2023-03-01T04:17:14;14.23;;;10.50;;
61038;SDS011;46919;45.816;3.104;2023-03-01T04:19:39;15.68;;;11.23;;
61038;SDS011;46919;45.816;3.104;2023-03-01T04:22:04;17.85;;;11.27;;
61038;SDS011;46919;45.816;3.104;2023-03-01T04:24:36;16.27;;;11.45;;
61038;SDS011;46919;45.816;3.104;2023-03-01T04:27:02;19.40;;;11.38;;
61038;SDS011;46919;45.816;3.104;2023-03-01T04:29:28;15.75;;;11.00;;
61038;SDS011;46919;45.816;3.104;2023-03-01T04:31:53;13.48;;;11.13;;
61038;SDS011;46919;45.816;3.104;2023-03-01T04:34:19;17.25;;;11.70;;
61038;SDS011;46919;45.816;3.104;2023-03-01T04:36:44;20.60;;;11.80;;
61038;SDS011;46919;45.816;3.104;2023-03-01T04:39:10;16.90;;;11.23;;
61038;SDS011;46919;45.816;3.104;2023-03-01T04:41:38;15.77;;;11.18;;
61038;SDS011;46919;45.816;3.104;2023-03-01T04:44:05;16.27;;;10.90;;
61038;SDS011;46919;45.816;3.104;2023-03-01T04:46:34;24.13;;;11.60;;
61038;SDS011;46919;45.816;3.104;2023-03-01T04:49:00;13.85;;;10.45;;
61038;SDS011;46919;45.816;3.104;2023-03-01T04:51:26;15.25;;;11.38;;
61038;SDS011;46919;45.816;3.104;2023-03-01T04:53:52;13.40;;;10.48;;
61038;SDS011;46919;45.816;3.104;2023-03-01T04:56:17;14.95;;;10.68;;
61038;SDS011;46919;45.816;3.104;2023-03-01T04:58:43;13.23;;;10.82;;
61038;SDS011;46919;45.816;3.104;2023-03-01T05:01:13;13.95;;;10.70;;
61038;SDS011;46919;45.816;3.104;2023-03-01T05:03:44;15.82;;;11.07;;
61038;SDS011;46919;45.816;3.104;2023-03-01T05:06:11;15.77;;;10.90;;
61038;SDS011;46919;45.816;3.104;2023-03-01T05:08:37;14.82;;;10.45;;
61038;SDS011;46919;45.816;3.104;2023-03-01T05:11:04;12.63;;;9.95;;
61038;SDS011;46919;45.816;3.104;2023-03-01T05:13:30;14.30;;;10.35;;
61038;SDS011;46919;45.816;3.104;2023-03-01T05:15:57;12.40;;;9.93;;
61038;SDS011;46919;45.816;3.104;2023-03-01T05:18:24;14.77;;;10.48;;
61038;SDS011;46919;45.816;3.104;2023-03-01T05:20:54;17.20;;;10.55;;
61038;SDS011;46919;45.816;3.104;2023-03-01T05:23:21;13.55;;;10.13;;
61038;SDS011;46919;45.816;3.104;2023-03-01T05:25:47;14.50;;;10.82;;
61038;SDS011;46919;45.816;3.104;2023-03-01T05:28:14;13.07;;;10.57;;
61038;SDS011;46919;45.816;3.104;2023-03-01T05:30:40;12.98;;;10.00;;
61038;SDS011;46919;45.816;3.104;2023-03-01T05:33:06;12.82;;;10.20;;
61038;SDS011;46919;45.816;3.104;2023-03-01T05:35:38;14.82;;;11.57;;
61038;SDS011;46919;45.816;3.104;2023-03-01T05:38:05;15.95;;;10.85;;
61038;SDS011;46919;45.816;3.104;2023-03-01T05:40:32;14.77;;;11.00;;
61038;SDS011;46919;45.816;3.104;2023-03-01T05:42:59;15.05;;;10.43;;
61038;SDS011;46919;45.816;3.104;2023-03-01T05:45:25;18.60;;;11.02;;
61038;SDS011;46919;45.816;3.104;2023-03-01T05:47:51;13.88;;;10.55;;
61038;SDS011;46919;45.816;3.104;2023-03-01T05:50:25;14.35;;;10.85;;
61038;SDS011;46919;45.816;3.104;2023-03-01T05:53:00;14.13;;;10.15;;
61038;SDS011;46919;45.816;3.104;2023-03-01T05:55:27;12.82;;;10.32;;
61038;SDS011;46919;45.816;3.104;2023-03-01T05:57:57;14.55;;;10.45;;
61038;SDS011;46919;45.816;3.104;2023-03-01T06:00:24;14.07;;;10.63;;
61038;SDS011;46919;45.816;3.104;2023-03-01T06:02:50;13.63;;;10.68;;
61038;SDS011;46919;45.816;3.104;2023-03-01T06:05:17;14.73;;;11.82;;
61038;SDS011;46919;45.816;3.104;2023-03-01T06:07:43;14.65;;;11.32;;
61038;SDS011;46919;45.816;3.104;2023-03-01T06:10:09;14.70;;;11.00;;
61038;SDS011;46919;45.816;3.104;2023-03-01T06:12:37;15.50;;;10.95;;
61038;SDS011;46919;45.816;3.104;2023-03-01T06:15:04;16.65;;;10.93;;
61038;SDS011;46919;45.816;3.104;2023-03-01T06:17:31;20.33;;;11.27;;
61038;SDS011;46919;45.816;3.104;2023-03-01T06:19:58;14.73;;;10.82;;
61038;SDS011;46919;45.816;3.104;2023-03-01T06:22:23;14.00;;;11.07;;
61038;SDS011;46919;45.816;3.104;2023-03-01T06:24:49;13.90;;;10.55;;
61038;SDS011;46919;45.816;3.104;2023-03-01T06:27:14;17.63;;;11.40;;
61038;SDS011;46919;45.816;3.104;2023-03-01T06:29:41;17.45;;;11.30;;
61038;SDS011;46919;45.816;3.104;2023-03-01T06:32:06;17.73;;;10.90;;
61038;SDS011;46919;45.816;3.104;2023-03-01T06:34:33;13.45;;;10.60;;
61038;SDS011;46919;45.816;3.104;2023-03-01T06:36:58;16.02;;;11.30;;
61038;SDS011;46919;45.816;3.104;2023-03-01T06:39:24;18.33;;;13.02;;
61038;SDS011;46919;45.816;3.104;2023-03-01T06:41:49;25.80;;;14.68;;
61038;SDS011;46919;45.816;3.104;2023-03-01T06:44:15;28.73;;;16.98;;
61038;SDS011;46919;45.816;3.104;2023-03-01T06:46:40;39.40;;;19.75;;
61038;SDS011;46919;45.816;3.104;2023-03-01T06:49:06;16.42;;;11.93;;
61038;SDS011;46919;45.816;3.104;2023-03-01T06:51:34;17.13;;;12.05;;
61038;SDS011;46919;45.816;3.104;2023-03-01T06:54:02;18.25;;;11.57;;
61038;SDS011;46919;45.816;3.104;2023-03-01T06:56:28;15.82;;;12.07;;
61038;SDS011;46919;45.816;3.104;2023-03-01T06:58:54;16.63;;;10.63;;
61038;SDS011;46919;45.816;3.104;2023-03-01T07:01:19;16.48;;;11.60;;
61038;SDS011;46919;45.816;3.104;2023-03-01T07:03:45;16.42;;;11.95;;
61038;SDS011;46919;45.816;3.104;2023-03-01T07:06:11;17.25;;;11.63;;
61038;SDS011;46919;45.816;3.104;2023-03-01T07:08:36;19.63;;;13.07;;
61038;SDS011;46919;45.816;3.104;2023-03-01T07:11:02;18.67;;;12.15;;
61038;SDS011;46919;45.816;3.104;2023-03-01T07:13:28;16.67;;;12.07;;
61038;SDS011;46919;45.816;3.104;2023-03-01T07:15:53;16.45;;;12.02;;
61038;SDS011;46919;45.816;3.104;2023-03-01T07:18:19;19.10;;;12.80;;
61038;SDS011;46919;45.816;3.104;2023-03-01T07:20:44;24.65;;;14.15;;
61038;SDS011;46919;45.816;3.104;2023-03-01T07:23:10;19.40;;;13.52;;
61038;SDS011;46919;45.816;3.104;2023-03-01T07:25:35;19.38;;;13.52;;
61038;SDS011;46919;45.816;3.104;2023-03-01T07:28:00;18.75;;;13.48;;
61038;SDS011;46919;45.816;3.104;2023-03-01T07:30:26;16.85;;;12.60;;
61038;SDS011;46919;45.816;3.104;2023-03-01T07:32:53;18.65;;;12.75;;
61038;SDS011;46919;45.816;3.104;2023-03-01T07:35:20;20.77;;;13.25;;
61038;SDS011;46919;45.816;3.104;2023-03-01T07:37:45;17.23;;;12.55;;
61038;SDS011;46919;45.816;3.104;2023-03-01T07:40:11;19.77;;;12.98;;
61038;SDS011;46919;45.816;3.104;2023-03-01T07:42:37;17.38;;;12.88;;
61038;SDS011;46919;45.816;3.104;2023-03-01T07:45:03;18.73;;;12.98;;
61038;SDS011;46919;45.816;3.104;2023-03-01T07:47:30;17.92;;;12.70;;
61038;SDS011;46919;45.816;3.104;2023-03-01T07:49:56;19.40;;;13.68;;
61038;SDS011;46919;45.816;3.104;2023-03-01T07:52:21;21.35;;;13.65;;
61038;SDS011;46919;45.816;3.104;2023-03-01T07:54:47;19.02;;;13.38;;
61038;SDS011;46919;45.816;3.104;2023-03-01T07:57:12;23.23;;;13.50;;
61038;SDS011;46919;45.816;3.104;2023-03-01T07:59:37;20.23;;;14.23;;
61038;SDS011;46919;45.816;3.104;2023-03-01T08:02:03;23.02;;;14.95;;
61038;SDS011;46919;45.816;3.104;2023-03-01T08:04:28;18.83;;;13.15;;
61038;SDS011;46919;45.816;3.104;2023-03-01T08:06:54;17.88;;;12.88;;
61038;SDS011;46919;45.816;3.104;2023-03-01T08:09:20;18.55;;;13.32;;
61038;SDS011;46919;45.816;3.104;2023-03-01T08:11:45;18.17;;;13.40;;
61038;SDS011;46919;45.816;3.104;2023-03-01T08:14:11;19.50;;;13.35;;
61038;SDS011;46919;45.816;3.104;2023-03-01T08:16:37;19.58;;;14.27;;
61038;SDS011;46919;45.816;3.104;2023-03-01T08:19:06;19.42;;;13.80;;
61038;SDS011;46919;45.816;3.104;2023-03-01T08:21:35;19.63;;;13.32;;
61038;SDS011;46919;45.816;3.104;2023-03-01T08:24:02;20.02;;;13.55;;
61038;SDS011;46919;45.816;3.104;2023-03-01T08:26:28;18.35;;;13.45;;
61038;SDS011;46919;45.816;3.104;2023-03-01T08:28:54;16.20;;;12.57;;
61038;SDS011;46919;45.816;3.104;2023-03-01T08:31:21;18.17;;;12.73;;
61038;SDS011;46919;45.816;3.104;2023-03-01T08:33:48;20.23;;;13.30;;
61038;SDS011;46919;45.816;3.104;2023-03-01T08:36:20;18.65;;;13.25;;
61038;SDS011;46919;45.816;3.104;2023-03-01T08:38:47;20.00;;;14.02;;
61038;SDS011;46919;45.816;3.104;2023-03-01T08:41:12;17.38;;;13.32;;
61038;SDS011;46919;45.816;3.104;2023-03-01T08:43:39;19.67;;;14.52;;
61038;SDS011;46919;45.816;3.104;2023-03-01T08:46:05;19.77;;;14.02;;
61038;SDS011;46919;45.816;3.104;2023-03-01T08:48:30;19.77;;;14.18;;
61038;SDS011;46919;45.816;3.104;2023-03-01T08:50:55;18.67;;;14.32;;
61038;SDS011;46919;45.816;3.104;2023-03-01T08:53:21;17.42;;;13.35;;
61038;SDS011;46919;45.816;3.104;2023-03-01T08:55:46;18.92;;;13.98;;
61038;SDS011;46919;45.816;3.104;2023-03-01T08:58:12;19.70;;;14.95;;
61038;SDS011;46919;45.816;3.104;2023-03-01T09:00:37;19.60;;;14.88;;
61038;SDS011;46919;45.816;3.104;2023-03-01T09:03:03;22.90;;;14.75;;
61038;SDS011;46919;45.816;3.104;2023-03-01T09:05:33;22.38;;;15.10;;
61038;SDS011;46919;45.816;3.104;2023-03-01T09:07:59;19.13;;;14.68;;
61038;SDS011;46919;45.816;3.104;2023-03-01T09:10:24;23.02;;;15.73;;
61038;SDS011;46919;45.816;3.104;2023-03-01T09:12:50;18.77;;;14.38;;
61038;SDS011;46919;45.816;3.104;2023-03-01T09:15:16;19.98;;;14.13;;
61038;SDS011;46919;45.816;3.104;2023-03-01T09:17:41;20.65;;;16.10;;
61038;SDS011;46919;45.816;3.104;2023-03-01T09:20:07;20.70;;;14.98;;
61038;SDS011;46919;45.816;3.104;2023-03-01T09:22:33;21.17;;;15.25;;
61038;SDS011;46919;45.816;3.104;2023-03-01T09:25:00;20.30;;;14.82;;
61038;SDS011;46919;45.816;3.104;2023-03-01T09:27:25;19.45;;;14.65;;
61038;SDS011;46919;45.816;3.104;2023-03-01T09:29:51;19.15;;;14.63;;
61038;SDS011;46919;45.816;3.104;2023-03-01T09:32:16;22.52;;;14.75;;
61038;SDS011;46919;45.816;3.104;2023-03-01T09:34:42;21.15;;;15.27;;
61038;SDS011;46919;45.816;3.104;2023-03-01T09:37:26;21.73;;;15.48;;
61038;SDS011;46919;45.816;3.104;2023-03-01T09:39:52;21.17;;;14.93;;
61038;SDS011;46919;45.816;3.104;2023-03-01T09:42:17;21.45;;;15.13;;
61038;SDS011;46919;45.816;3.104;2023-03-01T09:44:47;23.52;;;15.90;;
61038;SDS011;46919;45.816;3.104;2023-03-01T09:55:32;21.20;;;15.40;;
61038;SDS011;46919;45.816;3.104;2023-03-01T10:00:53;21.23;;;16.15;;
61038;SDS011;46919;45.816;3.104;2023-03-01T10:03:39;19.95;;;15.57;;
61038;SDS011;46919;45.816;3.104;2023-03-01T10:06:15;22.55;;;15.85;;
61038;SDS011;46919;45.816;3.104;2023-03-01T10:09:02;23.30;;;16.67;;
61038;SDS011;46919;45.816;3.104;2023-03-01T10:11:45;23.45;;;16.17;;
61038;SDS011;46919;45.816;3.104;2023-03-01T10:14:28;23.02;;;15.25;;
61038;SDS011;46919;45.816;3.104;2023-03-01T10:17:02;23.95;;;17.02;;
61038;SDS011;46919;45.816;3.104;2023-03-01T10:21:56;22.65;;;15.77;;
61038;SDS011;46919;45.816;3.104;2023-03-01T10:24:25;26.38;;;17.35;;
61038;SDS011;46919;45.816;3.104;2023-03-01T10:26:57;21.90;;;16.27;;
61038;SDS011;46919;45.816;3.104;2023-03-01T10:29:37;22.83;;;16.70;;
61038;SDS011;46919;45.816;3.104;2023-03-01T10:32:09;25.35;;;17.00;;
61038;SDS011;46919;45.816;3.104;2023-03-01T10:34:36;27.17;;;17.00;;
61038;SDS011;46919;45.816;3.104;2023-03-01T10:37:14;25.75;;;17.60;;
61038;SDS011;46919;45.816;3.104;2023-03-01T10:42:37;25.90;;;18.02;;
61038;SDS011;46919;45.816;3.104;2023-03-01T10:48:03;23.70;;;16.73;;
61038;SDS011;46919;45.816;3.104;2023-03-01T10:50:28;24.52;;;18.40;;
61038;SDS011;46919;45.816;3.104;2023-03-01T10:52:58;25.10;;;18.15;;
61038;SDS011;46919;45.816;3.104;2023-03-01T11:00:55;28.55;;;19.17;;
61038;SDS011;46919;45.816;3.104;2023-03-01T11:06:04;26.52;;;19.13;;
61038;SDS011;46919;45.816;3.104;2023-03-01T11:08:34;26.33;;;18.40;;
61038;SDS011;46919;45.816;3.104;2023-03-01T11:11:06;27.95;;;19.15;;
61038;SDS011;46919;45.816;3.104;2023-03-01T11:16:35;26.17;;;18.83;;
61038;SDS011;46919;45.816;3.104;2023-03-01T11:21:33;25.60;;;18.17;;
61038;SDS011;46919;45.816;3.104;2023-03-01T11:24:06;25.20;;;18.55;;
61038;SDS011;46919;45.816;3.104;2023-03-01T11:26:36;24.52;;;18.35;;
61038;SDS011;46919;45.816;3.104;2023-03-01T11:29:07;27.15;;;19.67;;
61038;SDS011;46919;45.816;3.104;2023-03-01T11:31:52;26.45;;;18.58;;
61038;SDS011;46919;45.816;3.104;2023-03-01T11:34:43;26.05;;;20.13;;
61038;SDS011;46919;45.816;3.104;2023-03-01T11:37:21;26.05;;;18.67;;
61038;SDS011;46919;45.816;3.104;2023-03-01T11:39:55;23.90;;;18.15;;
61038;SDS011;46919;45.816;3.104;2023-03-01T11:42:35;23.42;;;17.77;;
61038;SDS011;46919;45.816;3.104;2023-03-01T11:45:10;23.05;;;17.10;;
61038;SDS011;46919;45.816;3.104;2023-03-01T11:50:44;25.88;;;18.70;;
61038;SDS011;46919;45.816;3.104;2023-03-01T12:31:05;23.83;;;17.25;;
61038;SDS011;46919;45.816;3.104;2023-03-01T12:36:13;22.05;;;18.70;;
61038;SDS011;46919;45.816;3.104;2023-03-01T12:52:03;24.17;;;19.60;;
61038;SDS011;46919;45.816;3.104;2023-03-01T13:05:27;21.88;;;18.85;;
61038;SDS011;46919;45.816;3.104;2023-03-01T13:08:08;20.98;;;17.55;;
61038;SDS011;46919;45.816;3.104;2023-03-01T13:10:54;19.98;;;17.38;;
61038;SDS011;46919;45.816;3.104;2023-03-01T13:13:26;19.65;;;17.55;;
61038;SDS011;46919;45.816;3.104;2023-03-01T13:15:52;20.23;;;16.60;;
61038;SDS011;46919;45.816;3.104;2023-03-01T13:26:30;22.23;;;17.95;;
61038;SDS011;46919;45.816;3.104;2023-03-01T13:31:54;18.92;;;16.88;;
61038;SDS011;46919;45.816;3.104;2023-03-01T13:33:59;22.90;;;19.55;;
61038;SDS011;46919;45.816;3.104;2023-03-01T13:49:34;19.65;;;17.17;;
61038;SDS011;46919;45.816;3.104;2023-03-01T13:52:13;18.13;;;15.93;;
61038;SDS011;46919;45.816;3.104;2023-03-01T13:55:03;19.52;;;17.40;;
61038;SDS011;46919;45.816;3.104;2023-03-01T13:57:39;22.95;;;17.30;;
61038;SDS011;46919;45.816;3.104;2023-03-01T14:00:07;18.73;;;16.73;;
61038;SDS011;46919;45.816;3.104;2023-03-01T14:02:59;19.63;;;17.48;;
61038;SDS011;46919;45.816;3.104;2023-03-01T14:05:35;20.92;;;16.83;;
61038;SDS011;46919;45.816;3.104;2023-03-01T14:08:02;19.88;;;16.70;;
61038;SDS011;46919;45.816;3.104;2023-03-01T14:18:38;22.25;;;16.55;;
61038;SDS011;46919;45.816;3.104;2023-03-01T14:21:17;21.75;;;16.38;;
61038;SDS011;46919;45.816;3.104;2023-03-01T14:23:42;20.40;;;16.08;;
61038;SDS011;46919;45.816;3.104;2023-03-01T14:26:08;22.33;;;16.45;;
61038;SDS011;46919;45.816;3.104;2023-03-01T14:28:37;20.50;;;17.00;;
61038;SDS011;46919;45.816;3.104;2023-03-01T14:31:29;22.75;;;16.02;;
61038;SDS011;46919;45.816;3.104;2023-03-01T14:34:16;18.42;;;15.75;;
61038;SDS011;46919;45.816;3.104;2023-03-01T14:36:44;20.42;;;16.42;;
61038;SDS011;46919;45.816;3.104;2023-03-01T14:39:17;23.23;;;17.42;;
61038;SDS011;46919;45.816;3.104;2023-03-01T14:41:43;20.30;;;16.48;;
61038;SDS011;46919;45.816;3.104;2023-03-01T14:44:15;22.00;;;16.58;;
61038;SDS011;46919;45.816;3.104;2023-03-01T14:46:51;19.95;;;15.85;;
61038;SDS011;46919;45.816;3.104;2023-03-01T14:49:19;23.52;;;16.58;;
61038;SDS011;46919;45.816;3.104;2023-03-01T14:52:06;22.17;;;16.05;;
61038;SDS011;46919;45.816;3.104;2023-03-01T14:54:46;20.42;;;16.50;;
61038;SDS011;46919;45.816;3.104;2023-03-01T14:57:18;24.85;;;16.73;;
61038;SDS011;46919;45.816;3.104;2023-03-01T14:59:48;20.77;;;17.00;;
61038;SDS011;46919;45.816;3.104;2023-03-01T15:02:18;20.70;;;15.68;;
61038;SDS011;46919;45.816;3.104;2023-03-01T15:04:52;21.13;;;16.02;;
61038;SDS011;46919;45.816;3.104;2023-03-01T15:07:21;19.85;;;16.30;;
61038;SDS011;46919;45.816;3.104;2023-03-01T15:09:51;21.48;;;16.98;;
61038;SDS011;46919;45.816;3.104;2023-03-01T15:12:37;21.23;;;16.20;;
61038;SDS011;46919;45.816;3.104;2023-03-01T15:18:04;21.80;;;16.77;;
61038;SDS011;46919;45.816;3.104;2023-03-01T15:20:38;23.83;;;17.20;;
61038;SDS011;46919;45.816;3.104;2023-03-01T15:23:04;21.98;;;16.52;;
61038;SDS011;46919;45.816;3.104;2023-03-01T15:25:30;25.67;;;17.88;;
61038;SDS011;46919;45.816;3.104;2023-03-01T15:27:57;23.50;;;18.55;;
61038;SDS011;46919;45.816;3.104;2023-03-01T15:35:52;24.07;;;17.70;;
61038;SDS011;46919;45.816;3.104;2023-03-01T15:40:53;22.20;;;17.33;;
61038;SDS011;46919;45.816;3.104;2023-03-01T15:43:38;22.92;;;16.70;;
61038;SDS011;46919;45.816;3.104;2023-03-01T15:46:27;23.05;;;17.90;;
61038;SDS011;46919;45.816;3.104;2023-03-01T15:48:57;21.70;;;16.90;;
61038;SDS011;46919;45.816;3.104;2023-03-01T15:53:57;21.88;;;16.60;;
61038;SDS011;46919;45.816;3.104;2023-03-01T15:56:24;23.05;;;17.23;;
61038;SDS011;46919;45.816;3.104;2023-03-01T15:58:50;26.08;;;18.40;;
61038;SDS011;46919;45.816;3.104;2023-03-01T16:01:16;25.63;;;18.50;;
61038;SDS011;46919;45.816;3.104;2023-03-01T16:03:42;25.05;;;18.33;;
61038;SDS011;46919;45.816;3.104;2023-03-01T16:06:09;22.42;;;17.05;;
61038;SDS011;46919;45.816;3.104;2023-03-01T16:08:35;24.92;;;17.10;;
61038;SDS011;46919;45.816;3.104;2023-03-01T16:11:02;26.58;;;19.02;;
61038;SDS011;46919;45.816;3.104;2023-03-01T16:13:30;22.48;;;17.80;;
61038;SDS011;46919;45.816;3.104;2023-03-01T16:15:56;21.48;;;16.63;;
61038;SDS011;46919;45.816;3.104;2023-03-01T16:18:22;24.23;;;16.23;;
61038;SDS011;46919;45.816;3.104;2023-03-01T16:20:47;22.23;;;16.80;;
61038;SDS011;46919;45.816;3.104;2023-03-01T16:23:14;23.27;;;16.00;;
61038;SDS011;46919;45.816;3.104;2023-03-01T16:25:40;21.88;;;16.95;;
61038;SDS011;46919;45.816;3.104;2023-03-01T16:28:05;25.70;;;17.98;;
61038;SDS011;46919;45.816;3.104;2023-03-01T16:30:34;23.10;;;17.30;;
61038;SDS011;46919;45.816;3.104;2023-03-01T16:33:00;22.98;;;16.75;;
61038;SDS011;46919;45.816;3.104;2023-03-01T16:35:26;21.98;;;15.88;;
61038;SDS011;46919;45.816;3.104;2023-03-01T16:37:52;21.65;;;16.33;;
61038;SDS011;46919;45.816;3.104;2023-03-01T16:42:49;22.40;;;16.60;;
61038;SDS011;46919;45.816;3.104;2023-03-01T16:45:15;23.13;;;17.10;;
61038;SDS011;46919;45.816;3.104;2023-03-01T16:47:41;22.15;;;16.02;;
61038;SDS011;46919;45.816;3.104;2023-03-01T16:50:07;24.23;;;17.27;;
61038;SDS011;46919;45.816;3.104;2023-03-01T16:52:33;24.35;;;17.40;;
61038;SDS011;46919;45.816;3.104;2023-03-01T16:54:59;25.60;;;16.55;;
61038;SDS011;46919;45.816;3.104;2023-03-01T16:57:24;22.55;;;16.13;;
61038;SDS011;46919;45.816;3.104;2023-03-01T16:59:53;22.73;;;17.15;;
61038;SDS011;46919;45.816;3.104;2023-03-01T17:02:18;24.58;;;16.70;;
61038;SDS011;46919;45.816;3.104;2023-03-01T17:04:44;23.85;;;16.83;;
61038;SDS011;46919;45.816;3.104;2023-03-01T17:07:10;22.80;;;16.58;;
61038;SDS011;46919;45.816;3.104;2023-03-01T17:09:36;20.85;;;16.40;;
61038;SDS011;46919;45.816;3.104;2023-03-01T17:12:03;25.77;;;17.45;;
61038;SDS011;46919;45.816;3.104;2023-03-01T17:14:29;23.17;;;18.20;;
61038;SDS011;46919;45.816;3.104;2023-03-01T17:16:55;26.27;;;18.55;;